createdAt,value
2019-04-28T00:01:03.112Z,23.90
2019-04-28T00:03:34.956Z,24.60
2019-04-28T00:06:06.803Z,24.20
2019-04-28T00:08:39.713Z,24.40
2019-04-28T00:11:11.798Z,24.30
2019-04-28T00:13:43.942Z,24.30
2019-04-28T00:16:16.105Z,24.10
2019-04-28T00:18:47.905Z,24.10
2019-04-28T00:21:37.553Z,24.30
2019-04-28T00:24:29.057Z,24.20
2019-04-28T00:27:02.874Z,24.40
2019-04-28T00:29:40.368Z,24.30
2019-04-28T00:32:08.474Z,24.30
2019-04-28T00:34:41.325Z,24.30
2019-04-28T00:37:33.432Z,24.10
2019-04-28T00:40:08.026Z,24.10
2019-04-28T00:42:41.361Z,24.00
2019-04-28T00:45:14.556Z,24.10
2019-04-28T00:47:46.334Z,24.10
2019-04-28T00:50:18.160Z,23.80
2019-04-28T00:52:51.815Z,24.00
2019-04-28T00:55:23.804Z,24.00
2019-04-28T00:57:55.545Z,24.10
2019-04-28T01:00:31.345Z,24.10
2019-04-28T01:03:03.473Z,24.00
2019-04-28T01:05:35.283Z,24.00
2019-04-28T01:08:07.475Z,24.10
2019-04-28T01:10:40.902Z,24.10
2019-04-28T01:13:12.895Z,24.20
2019-04-28T01:16:01.224Z,24.30
2019-04-28T01:18:51.849Z,24.20
2019-04-28T01:21:26.029Z,24.40
2019-04-28T01:23:59.818Z,24.20
2019-04-28T01:26:31.629Z,24.40
2019-04-28T01:29:03.431Z,24.20
2019-04-28T01:31:49.445Z,24.40
2019-04-28T01:34:22.924Z,24.40
2019-04-28T01:36:54.719Z,24.40
2019-04-28T01:39:26.915Z,24.20
2019-04-28T01:41:59.529Z,24.10
2019-04-28T01:44:31.507Z,24.10
2019-04-28T01:47:03.312Z,24.20
2019-04-28T01:49:35.060Z,24.10
2019-04-28T01:52:07.293Z,24.00
2019-04-28T01:54:40.290Z,24.20
2019-04-28T01:57:12.426Z,24.80
2019-04-28T01:59:44.787Z,24.30
2019-04-28T02:02:16.630Z,24.20
2019-04-28T02:04:49.929Z,24.10
2019-04-28T02:07:21.853Z,24.40
2019-04-28T02:09:53.916Z,24.80
2019-04-28T02:12:25.681Z,24.20
2019-04-28T02:14:57.522Z,24.00
2019-04-28T02:17:30.467Z,24.20
2019-04-28T02:20:02.505Z,24.40
2019-04-28T02:22:45.839Z,24.30
2019-04-28T02:25:19.566Z,24.30
2019-04-28T02:27:51.524Z,24.40
2019-04-28T02:30:40.940Z,24.20
2019-04-28T02:32:57.090Z,24.10
2019-04-28T02:35:31.703Z,24.10
2019-04-28T02:38:02.425Z,24.50
2019-04-28T02:40:34.525Z,24.30
2019-04-28T02:43:06.305Z,24.60
2019-04-28T02:45:41.181Z,24.40
2019-04-28T02:48:21.074Z,24.40
2019-04-28T02:51:01.152Z,24.30
2019-04-28T02:53:36.437Z,24.10
2019-04-28T02:56:11.085Z,24.10
2019-04-28T02:58:41.856Z,24.10
2019-04-28T03:01:22.769Z,24.10
2019-04-28T03:03:47.049Z,23.90
2019-04-28T03:06:20.652Z,24.00
2019-04-28T03:08:52.278Z,24.10
2019-04-28T03:11:24.294Z,24.10
2019-04-28T03:13:56.062Z,24.00
2019-04-28T03:16:27.816Z,24.00
2019-04-28T03:19:01.381Z,24.00
2019-04-28T03:21:33.329Z,24.30
2019-04-28T03:24:05.140Z,24.40
2019-04-28T03:27:00.577Z,24.20
2019-04-28T03:29:50.457Z,24.10
2019-04-28T03:32:59.092Z,23.90
2019-04-28T03:35:22.909Z,23.90
2019-04-28T03:37:54.711Z,23.70
2019-04-28T03:40:26.504Z,23.80
2019-04-28T03:43:00.331Z,23.70
2019-04-28T03:45:40.754Z,23.60
2019-04-28T03:48:11.615Z,23.60
2019-04-28T03:50:43.697Z,23.70
2019-04-28T03:53:15.454Z,23.60
2019-04-28T03:55:47.241Z,23.60
2019-04-28T03:58:23.509Z,23.70
2019-04-28T04:00:52.617Z,23.70
2019-04-28T04:03:24.394Z,23.60
2019-04-28T04:05:56.234Z,23.60
2019-04-28T04:08:30.677Z,23.70
2019-04-28T04:11:10.808Z,23.70
2019-04-28T04:14:06.528Z,23.80
2019-04-28T04:16:50.382Z,23.60
2019-04-28T04:19:22.302Z,23.50
2019-04-28T04:21:54.198Z,23.60
2019-04-28T04:24:26.238Z,23.60
2019-04-28T04:27:00.633Z,23.50
2019-04-28T04:29:31.520Z,23.60
2019-04-28T04:32:14.786Z,23.30
2019-04-28T04:34:37.025Z,23.40
2019-04-28T04:37:12.205Z,23.30
2019-04-28T04:39:42.256Z,23.40
2019-04-28T04:42:14.147Z,23.50
2019-04-28T04:44:46.073Z,23.40
2019-04-28T04:47:20.815Z,23.30
2019-04-28T04:49:51.357Z,23.10
2019-04-28T04:52:23.199Z,23.00
2019-04-28T04:54:55.266Z,23.70
2019-04-28T04:57:27.045Z,23.20
2019-04-28T05:00:00.205Z,23.20
2019-04-28T05:02:46.014Z,23.20
2019-04-28T05:05:20.283Z,23.20
2019-04-28T05:07:52.292Z,23.10
2019-04-28T05:10:24.105Z,23.00
2019-04-28T05:12:55.952Z,23.10
2019-04-28T05:15:27.824Z,23.20
2019-04-28T05:18:00.222Z,23.10
2019-04-28T05:20:32.473Z,23.10
2019-04-28T05:23:26.330Z,22.90
2019-04-28T05:26:01.554Z,23.00
2019-04-28T05:28:36.456Z,23.00
2019-04-28T05:31:05.133Z,23.40
2019-04-28T05:33:36.929Z,23.40
2019-04-28T05:36:09.866Z,23.30
2019-04-28T05:38:42.247Z,23.40
2019-04-28T05:41:14.070Z,23.70
2019-04-28T05:43:45.839Z,23.70
2019-04-28T05:46:19.638Z,23.50
2019-04-28T05:49:11.945Z,23.50
2019-04-28T05:51:45.732Z,23.50
2019-04-28T05:54:35.019Z,23.20
2019-04-28T05:57:25.652Z,23.20
2019-04-28T06:00:15.970Z,23.00
2019-04-28T06:02:56.372Z,23.30
2019-04-28T06:05:22.610Z,23.40
2019-04-28T06:08:09.953Z,23.10
2019-04-28T06:10:41.812Z,23.10
2019-04-28T06:13:13.638Z,23.20
2019-04-28T06:15:46.465Z,23.30
2019-04-28T06:18:20.490Z,23.60
2019-04-28T06:20:52.119Z,23.40
2019-04-28T06:23:23.913Z,23.20
2019-04-28T06:25:55.694Z,23.10
2019-04-28T06:28:27.464Z,23.30
2019-04-28T06:30:59.280Z,23.20
2019-04-28T06:33:31.181Z,22.90
2019-04-28T06:36:02.977Z,23.00
2019-04-28T06:38:34.759Z,23.10
2019-04-28T06:41:06.731Z,23.20
2019-04-28T06:43:38.664Z,23.00
2019-04-28T06:46:11.613Z,23.00
2019-04-28T06:48:43.678Z,23.30
2019-04-28T06:51:15.592Z,23.00
2019-04-28T06:53:47.365Z,23.10
2019-04-28T06:56:19.148Z,23.30
2019-04-28T06:58:58.764Z,23.20
2019-04-28T07:01:24.575Z,23.30
2019-04-28T07:03:56.675Z,23.30
2019-04-28T07:06:28.718Z,23.40
2019-04-28T07:09:00.549Z,23.50
2019-04-28T07:11:34.103Z,23.60
2019-04-28T07:14:06.014Z,23.50
2019-04-28T07:16:37.794Z,23.70
2019-04-28T07:19:09.602Z,23.60
2019-04-28T07:21:56.286Z,23.40
2019-04-28T07:24:28.087Z,23.70
2019-04-28T07:26:59.869Z,23.80
2019-04-28T07:29:31.694Z,23.90
2019-04-28T07:32:03.556Z,24.00
2019-04-28T07:34:35.560Z,24.00
2019-04-28T07:37:07.351Z,23.70
2019-04-28T07:39:39.136Z,23.70
2019-04-28T07:42:11.020Z,23.70
2019-04-28T07:44:42.854Z,23.70
2019-04-28T07:47:14.650Z,23.90
2019-04-28T07:49:46.866Z,24.00
2019-04-28T07:52:39.761Z,23.90
2019-04-28T07:55:11.693Z,23.80
2019-04-28T07:57:44.726Z,24.00
2019-04-28T08:00:22.452Z,23.80
2019-04-28T08:02:54.421Z,23.90
2019-04-28T08:05:26.347Z,23.80
2019-04-28T08:07:58.155Z,23.80
2019-04-28T08:10:30.045Z,23.90
2019-04-28T08:13:01.859Z,23.80
2019-04-28T08:15:33.684Z,23.70
2019-04-28T08:18:05.625Z,23.70
2019-04-28T08:20:37.826Z,23.90
2019-04-28T08:23:09.575Z,24.00
2019-04-28T08:25:41.447Z,24.10
2019-04-28T08:28:13.222Z,23.90
2019-04-28T08:30:45.183Z,23.80
2019-04-28T08:33:41.852Z,24.00
2019-04-28T08:36:14.038Z,24.10
2019-04-28T08:38:45.845Z,23.80
2019-04-28T08:41:17.705Z,23.80
2019-04-28T08:43:49.502Z,23.80
2019-04-28T08:46:21.548Z,23.90
2019-04-28T08:48:54.530Z,24.00
2019-04-28T08:51:26.973Z,24.00
2019-04-28T08:53:58.734Z,24.00
2019-04-28T08:56:30.541Z,23.80
2019-04-28T08:59:04.866Z,23.60
2019-04-28T09:01:35.827Z,23.80
2019-04-28T09:04:15.200Z,23.90
2019-04-28T09:06:42.470Z,23.60
2019-04-28T09:09:17.661Z,23.50
2019-04-28T09:11:49.527Z,23.50
2019-04-28T09:14:21.451Z,23.40
2019-04-28T09:16:53.275Z,23.70
2019-04-28T09:19:25.057Z,23.80
2019-04-28T09:21:57.158Z,23.60
2019-04-28T09:24:28.927Z,23.80
2019-04-28T09:27:00.749Z,23.80
2019-04-28T09:29:32.665Z,23.80
2019-04-28T09:32:04.579Z,24.10
2019-04-28T09:34:36.553Z,23.90
2019-04-28T09:37:08.382Z,23.90
2019-04-28T09:39:59.128Z,23.80
2019-04-28T09:42:48.475Z,23.60
2019-04-28T09:45:23.771Z,23.40
2019-04-28T09:47:55.678Z,23.30
2019-04-28T09:50:28.768Z,23.40
2019-04-28T09:53:01.191Z,23.30
2019-04-28T09:55:33.221Z,23.30
2019-04-28T09:58:05.012Z,23.30
2019-04-28T10:00:38.827Z,23.30
2019-04-28T10:03:10.643Z,23.60
2019-04-28T10:05:42.453Z,23.50
2019-04-28T10:08:14.264Z,23.50
2019-04-28T10:10:46.145Z,23.80
2019-04-28T10:13:18.030Z,23.60
2019-04-28T10:15:49.980Z,24.00
2019-04-28T10:18:21.885Z,23.90
2019-04-28T10:20:53.790Z,24.40
2019-04-28T10:23:25.831Z,23.80
2019-04-28T10:25:57.653Z,23.80
2019-04-28T10:28:29.469Z,23.80
2019-04-28T10:31:01.561Z,23.70
2019-04-28T10:33:33.377Z,23.70
2019-04-28T10:36:05.353Z,23.80
2019-04-28T10:38:39.375Z,23.90
2019-04-28T10:41:17.163Z,23.90
2019-04-28T10:43:48.987Z,24.00
2019-04-28T10:46:20.813Z,23.80
2019-04-28T10:48:52.869Z,23.80
2019-04-28T10:51:24.830Z,24.00
2019-04-28T10:53:57.266Z,24.00
2019-04-28T10:56:29.045Z,23.80
2019-04-28T10:59:01.453Z,23.90
2019-04-28T11:01:33.528Z,23.80
2019-04-28T11:04:09.114Z,23.70
2019-04-28T11:06:42.269Z,23.80
2019-04-28T11:09:30.328Z,23.80
2019-04-28T11:11:57.280Z,24.00
2019-04-28T11:14:29.131Z,24.00
2019-04-28T11:17:02.129Z,24.00
2019-04-28T11:19:33.947Z,24.00
2019-04-28T11:22:05.749Z,24.10
2019-04-28T11:24:37.844Z,24.10
2019-04-28T11:27:10.965Z,24.20
2019-04-28T11:29:42.838Z,24.10
2019-04-28T11:32:16.064Z,24.20
2019-04-28T11:34:53.945Z,24.30
2019-04-28T11:37:25.789Z,24.30
2019-04-28T11:39:57.850Z,24.50
2019-04-28T11:42:29.658Z,24.30
2019-04-28T11:45:01.635Z,24.30
2019-04-28T11:47:34.858Z,24.60
2019-04-28T11:50:07.932Z,24.60
2019-04-28T11:52:39.753Z,24.70
2019-04-28T11:55:13.849Z,24.50
2019-04-28T11:57:45.711Z,24.60
2019-04-28T12:00:28.372Z,24.50
2019-04-28T12:03:00.190Z,24.80
2019-04-28T12:05:40.822Z,24.80
2019-04-28T12:08:12.731Z,24.60
2019-04-28T12:11:09.434Z,24.70
2019-04-28T12:14:03.432Z,24.80
2019-04-28T12:16:48.237Z,24.80
2019-04-28T12:19:32.163Z,24.80
2019-04-28T12:22:04.002Z,24.80
2019-04-28T12:24:35.886Z,25.10
2019-04-28T12:27:07.932Z,25.20
2019-04-28T12:29:39.773Z,25.40
2019-04-28T12:32:11.576Z,25.40
2019-04-28T12:34:43.541Z,25.40
2019-04-28T12:37:15.354Z,25.20
2019-04-28T12:39:47.200Z,25.20
2019-04-28T12:42:19.164Z,25.30
2019-04-28T12:44:50.963Z,25.30
2019-04-28T12:47:22.800Z,25.80
2019-04-28T12:49:59.339Z,25.30
2019-04-28T12:52:31.445Z,25.40
2019-04-28T12:55:04.461Z,25.40
2019-04-28T12:57:36.851Z,25.50
2019-04-28T13:00:22.338Z,25.40
2019-04-28T13:03:11.922Z,25.30
2019-04-28T13:05:45.093Z,25.60
2019-04-28T13:08:17.367Z,25.50
2019-04-28T13:10:49.303Z,25.20
2019-04-28T13:13:21.179Z,25.20
2019-04-28T13:15:53.099Z,25.20
2019-04-28T13:18:26.214Z,25.10
2019-04-28T13:20:59.131Z,25.00
2019-04-28T13:23:31.310Z,25.10
2019-04-28T13:26:03.124Z,25.20
2019-04-28T13:28:35.374Z,25.20
2019-04-28T13:31:07.178Z,25.20
2019-04-28T13:33:55.093Z,24.90
2019-04-28T13:36:14.874Z,24.90
2019-04-28T13:38:46.083Z,25.10
2019-04-28T13:41:17.923Z,25.20
2019-04-28T13:43:50.033Z,25.10
2019-04-28T13:46:21.858Z,25.20
2019-04-28T13:48:53.670Z,25.40
2019-04-28T13:51:25.483Z,25.50
2019-04-28T13:53:57.589Z,25.40
2019-04-28T13:56:29.419Z,25.40
2019-04-28T13:59:10.442Z,25.30
2019-04-28T14:02:07.122Z,25.30
2019-04-28T14:04:51.297Z,25.40
2019-04-28T14:07:23.105Z,25.40
2019-04-28T14:09:54.907Z,25.40
2019-04-28T14:12:26.724Z,25.50
2019-04-28T14:14:58.803Z,25.50
2019-04-28T14:17:30.746Z,25.40
2019-04-28T14:20:02.664Z,25.50
2019-04-28T14:22:34.861Z,25.70
2019-04-28T14:25:06.873Z,25.80
2019-04-28T14:27:38.736Z,26.30
2019-04-28T14:30:11.391Z,25.90
2019-04-28T14:32:43.300Z,26.10
2019-04-28T14:35:15.659Z,26.00
2019-04-28T14:37:47.442Z,26.00
2019-04-28T14:40:19.453Z,26.20
2019-04-28T14:42:51.295Z,26.30
2019-04-28T14:45:23.211Z,26.00
2019-04-28T14:47:55.211Z,26.20
2019-04-28T14:50:26.985Z,26.40
2019-04-28T14:52:58.810Z,26.90
2019-04-28T14:55:30.631Z,26.30
2019-04-28T14:58:02.547Z,26.30
2019-04-28T15:00:39.479Z,26.40
2019-04-28T15:03:13.608Z,26.50
2019-04-28T15:06:13.085Z,26.40
2019-04-28T15:09:12.878Z,26.30
2019-04-28T15:11:50.254Z,26.20
2019-04-28T15:14:22.181Z,26.30
2019-04-28T15:16:54.113Z,26.30
2019-04-28T15:19:25.977Z,26.30
2019-04-28T15:21:58.000Z,26.20
2019-04-28T15:24:30.104Z,26.40
2019-04-28T15:27:02.192Z,26.20
2019-04-28T15:29:34.210Z,26.30
2019-04-28T15:32:06.184Z,26.40
2019-04-28T15:34:38.106Z,26.20
2019-04-28T15:37:10.405Z,26.20
2019-04-28T15:39:42.320Z,26.20
2019-04-28T15:42:14.177Z,26.40
2019-04-28T15:44:46.053Z,26.30
2019-04-28T15:47:17.962Z,26.20
2019-04-28T15:49:49.845Z,26.40
2019-04-28T15:52:21.686Z,26.40
2019-04-28T15:54:53.895Z,26.40
2019-04-28T15:57:25.728Z,26.30
2019-04-28T15:59:57.680Z,26.40
2019-04-28T16:02:29.673Z,26.30
2019-04-28T16:05:01.827Z,26.40
2019-04-28T16:07:33.947Z,26.40
2019-04-28T16:10:06.976Z,26.50
2019-04-28T16:12:40.082Z,26.40
2019-04-28T16:15:12.195Z,26.30
2019-04-28T16:17:43.997Z,26.40
2019-04-28T16:20:15.930Z,26.30
2019-04-28T16:22:48.113Z,26.40
2019-04-28T16:25:21.012Z,26.40
2019-04-28T16:27:53.175Z,26.40
2019-04-28T16:30:26.107Z,26.40
2019-04-28T16:32:58.360Z,26.30
2019-04-28T16:35:30.535Z,26.40
2019-04-28T16:38:03.716Z,26.20
2019-04-28T16:40:40.085Z,26.20
2019-04-28T16:43:16.460Z,26.20
2019-04-28T16:45:48.370Z,26.30
2019-04-28T16:48:20.883Z,26.30
2019-04-28T16:50:52.867Z,26.30
2019-04-28T16:53:25.433Z,26.20
2019-04-28T16:56:12.194Z,26.10
2019-04-28T16:58:54.481Z,26.20
2019-04-28T17:01:48.319Z,26.20
2019-04-28T17:04:20.505Z,26.20
2019-04-28T17:06:53.105Z,26.20
2019-04-28T17:09:25.771Z,26.10
2019-04-28T17:11:57.802Z,26.40
2019-04-28T17:14:29.892Z,26.40
2019-04-28T17:17:01.888Z,26.50
2019-04-28T17:19:34.389Z,26.50
2019-04-28T17:22:06.589Z,26.50
2019-04-28T17:24:38.469Z,26.60
2019-04-28T17:27:10.428Z,26.80
2019-04-28T17:29:42.410Z,26.80
2019-04-28T17:32:14.282Z,26.80
2019-04-28T17:34:46.119Z,26.70
2019-04-28T17:37:17.966Z,26.50
2019-04-28T17:39:49.878Z,26.40
2019-04-28T17:42:21.921Z,26.30
2019-04-28T17:44:54.156Z,26.40
2019-04-28T17:47:26.802Z,26.30
2019-04-28T17:49:59.104Z,26.30
2019-04-28T17:52:31.423Z,26.30
2019-04-28T17:55:03.365Z,26.30
2019-04-28T17:57:35.772Z,26.40
2019-04-28T18:00:21.705Z,26.40
2019-04-28T18:03:09.290Z,26.50
2019-04-28T18:05:48.855Z,26.40
2019-04-28T18:08:21.527Z,26.40
2019-04-28T18:10:53.676Z,26.40
2019-04-28T18:13:25.727Z,26.40
2019-04-28T18:16:08.801Z,26.40
2019-04-28T18:18:46.382Z,26.50
2019-04-28T18:21:18.243Z,26.40
2019-04-28T18:23:50.192Z,26.60
2019-04-28T18:26:22.193Z,26.60
2019-04-28T18:28:55.021Z,26.50
2019-04-28T18:32:01.188Z,26.50
2019-04-28T18:34:51.422Z,26.80
2019-04-28T18:37:42.433Z,26.60
2019-04-28T18:40:32.964Z,26.50
2019-04-28T18:43:15.266Z,26.50
2019-04-28T18:45:56.232Z,26.50
2019-04-28T18:48:28.119Z,26.60
2019-04-28T18:51:00.215Z,26.40
2019-04-28T18:53:32.129Z,26.40
2019-04-28T18:56:03.980Z,26.40
2019-04-28T18:58:35.928Z,26.30
2019-04-28T19:01:21.608Z,26.30
2019-04-28T19:03:53.827Z,26.30
2019-04-28T19:06:25.751Z,26.40
2019-04-28T19:09:07.030Z,26.30
2019-04-28T19:11:45.853Z,26.40
2019-04-28T19:14:25.245Z,26.40
2019-04-28T19:17:23.370Z,26.40
2019-04-28T19:19:55.500Z,27.00
2019-04-28T19:22:27.837Z,26.40
2019-04-28T19:24:59.687Z,26.50
2019-04-28T19:27:31.777Z,26.60
2019-04-28T19:30:04.384Z,26.50
2019-04-28T19:32:38.082Z,26.70
2019-04-28T19:35:10.875Z,26.70
2019-04-28T19:37:43.027Z,26.70
2019-04-28T19:40:15.596Z,26.70
2019-04-28T19:42:47.589Z,26.60
2019-04-28T19:45:20.746Z,26.70
2019-04-28T19:47:53.286Z,26.70
2019-04-28T19:50:25.185Z,26.70
2019-04-28T19:52:56.965Z,26.60
2019-04-28T19:55:33.056Z,26.70
2019-04-28T19:58:21.146Z,26.80
2019-04-28T20:00:56.798Z,26.90
2019-04-28T20:03:28.642Z,26.90
2019-04-28T20:06:00.950Z,26.90
2019-04-28T20:08:33.508Z,26.80
2019-04-28T20:11:05.422Z,26.80
2019-04-28T20:13:37.433Z,26.80
2019-04-28T20:16:09.376Z,26.90
2019-04-28T20:18:41.291Z,27.00
2019-04-28T20:21:13.285Z,27.00
2019-04-28T20:23:45.500Z,26.90
2019-04-28T20:26:17.494Z,26.90
2019-04-28T20:28:49.412Z,26.80
2019-04-28T20:31:21.387Z,27.00
2019-04-28T20:33:53.720Z,27.60
2019-04-28T20:36:36.185Z,27.10
2019-04-28T20:39:13.287Z,27.40
2019-04-28T20:41:46.826Z,27.30
2019-04-28T20:44:19.237Z,27.20
2019-04-28T20:46:51.206Z,27.20
2019-04-28T20:49:23.207Z,27.00
2019-04-28T20:51:55.028Z,26.90
2019-04-28T20:54:26.838Z,27.00
2019-04-28T20:56:58.640Z,26.90
2019-04-28T20:59:30.617Z,26.90
2019-04-28T21:02:02.434Z,26.80
2019-04-28T21:04:34.356Z,26.80
2019-04-28T21:07:06.246Z,26.70
2019-04-28T21:09:38.847Z,26.70
2019-04-28T21:12:10.721Z,26.70
2019-04-28T21:14:42.629Z,26.60
2019-04-28T21:17:14.610Z,26.60
2019-04-28T21:19:47.581Z,26.80
2019-04-28T21:22:19.455Z,26.80
2019-04-28T21:24:51.674Z,26.80
2019-04-28T21:27:23.902Z,26.90
2019-04-28T21:29:55.969Z,26.70
2019-04-28T21:32:27.924Z,26.70
2019-04-28T21:34:59.799Z,26.80
2019-04-28T21:37:31.682Z,26.70
2019-04-28T21:40:03.678Z,26.70
2019-04-28T21:42:53.234Z,26.70
2019-04-28T21:45:43.893Z,26.60
2019-04-28T21:48:33.883Z,26.70
2019-04-28T21:51:05.714Z,26.60
2019-04-28T21:53:37.503Z,26.70
2019-04-28T21:56:09.354Z,26.60
2019-04-28T21:58:41.126Z,26.60
2019-04-28T22:01:18.599Z,26.60
2019-04-28T22:03:50.915Z,26.50
2019-04-28T22:06:22.762Z,26.40
2019-04-28T22:08:55.626Z,26.40
2019-04-28T22:11:27.924Z,26.30
2019-04-28T22:14:01.053Z,26.40
2019-04-28T22:16:33.060Z,26.30
2019-04-28T22:19:04.965Z,26.30
2019-04-28T22:21:36.765Z,26.40
2019-04-28T22:24:13.732Z,26.30
2019-04-28T22:26:47.334Z,26.30
2019-04-28T22:29:20.197Z,26.30
2019-04-28T22:31:52.086Z,26.40
2019-04-28T22:34:23.890Z,26.40
2019-04-28T22:36:55.633Z,26.80
2019-04-28T22:39:27.474Z,26.40
2019-04-28T22:41:59.598Z,26.30
2019-04-28T22:44:31.407Z,26.30
2019-04-28T22:47:03.271Z,26.60
2019-04-28T22:49:35.125Z,26.60
2019-04-28T22:52:06.976Z,26.60
2019-04-28T22:54:57.741Z,26.60
2019-04-28T22:57:50.622Z,26.70
2019-04-28T23:00:58.581Z,26.50
2019-04-28T23:03:45.673Z,26.50
2019-04-28T23:06:17.496Z,26.60
2019-04-28T23:08:49.256Z,26.50
2019-04-28T23:11:21.265Z,26.40
2019-04-28T23:13:53.196Z,26.40
2019-04-28T23:16:25.064Z,26.40
2019-04-28T23:18:57.614Z,26.50
2019-04-28T23:21:46.926Z,26.50
2019-04-28T23:24:18.850Z,26.50
2019-04-28T23:26:50.666Z,26.50
2019-04-28T23:29:22.500Z,26.60
2019-04-28T23:31:54.323Z,26.70
2019-04-28T23:34:26.222Z,26.60
2019-04-28T23:36:58.095Z,26.70
2019-04-28T23:39:29.881Z,26.70
2019-04-28T23:42:06.730Z,26.70
2019-04-28T23:44:39.508Z,26.70
2019-04-28T23:47:11.496Z,26.70
2019-04-28T23:49:43.372Z,26.70
2019-04-28T23:52:34.004Z,26.70
2019-04-28T23:55:07.021Z,26.60
2019-04-28T23:57:38.786Z,26.70
